Wasioja, Minnesota
Current Conditions -  °F | °C
As of 6:14 AM on Sunday 23 Nov 2014 (Local Time) from KTOB Reporting Station
Moderate Fog Moderate Fog  
Wind Chill: 42°   Ceiling: 100
Heat Index: 48°   Visibility: 0.25mi
Dew Point: 46°   Wind: 15mph
Humidity: 93%   Direction: 180°S
Pressure: 29.48"   Gusts: NA
Location:  44.0228°N, 92.8616°W
Report Text: KTOB 231214Z AUTO 18013KT 1/4SM FG OVC001 09/08 A2948 RMK AO2
Loading
Personal Weather Stations






























Interactive Weather Map New forecast layout! Learn more

10-Day Weather Forecast

Advertisements
Track Severe Weather on mobile